Time;durP1;ratioP1;P1;durP2;ratioP2;P2;SDS_P1;SDS_P2;PMS_P1;PMS_P2;Temp;Humidity;BMP_temperature;BMP_pressure;BME280_temperature;BME280_humidity;BME280_pressure;Samples;Min_cycle;Max_cycle;Signal;HPM_P1;HPM_P2
2023/03/25 00:01:24;;;;;;;5.22;1.30;;;8.80;99.90;;;;;;7608351;19;20081;-74
2023/03/25 00:03:57;;;;;;;7.55;1.48;;;8.80;99.90;;;;;;7607689;19;20022;-76
2023/03/25 00:06:33;;;;;;;2.17;1.17;;;8.80;99.90;;;;;;7586022;19;20663;-75
2023/03/25 00:09:05;;;;;;;2.08;1.17;;;8.80;99.90;;;;;;7596596;19;20014;-74
2023/03/25 00:11:38;;;;;;;2.95;1.38;;;8.80;99.90;;;;;;7599239;19;20026;-76
2023/03/25 00:14:11;;;;;;;2.67;1.00;;;8.70;99.90;;;;;;7600520;19;20027;-75
2023/03/25 00:16:47;;;;;;;2.95;1.30;;;8.80;99.90;;;;;;7607620;19;20671;-75
2023/03/25 00:19:22;;;;;;;3.85;1.30;;;8.80;99.90;;;;;;7606569;19;20025;-75
2023/03/25 00:21:55;;;;;;;2.17;1.23;;;8.70;99.90;;;;;;7607171;19;20030;-77
2023/03/25 00:24:27;;;;;;;5.55;1.27;;;8.80;99.90;;;;;;7594556;19;20011;-76
2023/03/25 00:27:00;;;;;;;3.55;1.35;;;8.70;99.90;;;;;;7593756;19;20750;-76
2023/03/25 00:29:32;;;;;;;4.60;1.40;;;8.80;99.90;;;;;;7596838;19;20467;-75
2023/03/25 00:32:05;;;;;;;2.13;1.40;;;8.70;99.90;;;;;;7591279;19;20476;-76
2023/03/25 00:34:46;;;;;;;4.10;1.65;;;8.80;99.90;;;;;;7574327;19;20018;-76
2023/03/25 00:37:20;;;;;;;10.68;3.05;;;8.70;99.90;;;;;;7592143;19;20050;-75
2023/03/25 00:39:52;;;;;;;4.18;1.58;;;8.80;99.90;;;;;;7609442;19;20964;-75
2023/03/25 00:42:25;;;;;;;4.72;1.42;;;8.70;99.90;;;;;;7596314;19;20517;-75
2023/03/25 00:44:57;;;;;;;4.60;1.20;;;8.80;99.90;;;;;;7601753;19;20501;-75
2023/03/25 00:47:30;;;;;;;2.35;1.10;;;8.80;99.90;;;;;;7598269;19;20742;-75
2023/03/25 00:50:04;;;;;;;5.00;3.30;;;8.80;99.90;;;;;;7598742;19;20018;-74
2023/03/25 00:52:37;;;;;;;2.80;1.38;;;8.90;99.90;;;;;;7593074;19;20019;-76
2023/03/25 00:55:10;;;;;;;2.05;1.38;;;8.80;99.90;;;;;;7586769;19;20038;-76
2023/03/25 00:57:42;;;;;;;4.15;1.55;;;8.80;99.90;;;;;;7588581;19;21356;-74
2023/03/25 01:00:17;;;;;;;5.35;1.50;;;8.90;99.90;;;;;;7590003;19;20108;-74
2023/03/25 01:02:52;;;;;;;3.13;1.50;;;8.80;99.90;;;;;;7591790;19;20440;-75
2023/03/25 01:05:26;;;;;;;4.22;1.40;;;8.90;99.90;;;;;;7592751;19;20019;-74
2023/03/25 01:07:58;;;;;;;1.70;1.27;;;9.00;99.90;;;;;;7594873;19;20106;-76
2023/03/25 01:10:37;;;;;;;5.65;1.10;;;8.90;99.90;;;;;;7594763;19;20029;-76
2023/03/25 01:13:09;;;;;;;4.07;1.20;;;8.90;99.90;;;;;;7602048;19;20096;-76
2023/03/25 01:15:41;;;;;;;6.53;1.17;;;8.90;99.90;;;;;;7602579;19;20022;-76
2023/03/25 01:18:15;;;;;;;5.78;1.35;;;9.00;99.90;;;;;;7602668;19;20098;-76
2023/03/25 01:20:47;;;;;;;4.30;1.20;;;9.10;99.90;;;;;;7602482;19;20079;-76
2023/03/25 01:23:20;;;;;;;5.22;1.95;;;9.20;99.90;;;;;;7601575;19;20014;-76
2023/03/25 01:25:52;;;;;;;3.88;1.45;;;9.20;99.90;;;;;;7599163;19;20015;-75
2023/03/25 01:28:26;;;;;;;2.63;1.35;;;9.10;99.90;;;;;;7595964;19;20351;-75
2023/03/25 01:31:01;;;;;;;3.40;0.93;;;9.10;99.90;;;;;;7607829;19;20029;-76
2023/03/25 01:33:34;;;;;;;6.15;1.20;;;9.10;99.90;;;;;;7597298;19;20011;-75
2023/03/25 01:36:08;;;;;;;4.93;0.95;;;9.10;99.90;;;;;;7601028;19;20657;-76
2023/03/25 01:38:41;;;;;;;5.55;1.42;;;9.20;99.90;;;;;;7598693;19;20518;-76
2023/03/25 01:41:14;;;;;;;5.50;1.40;;;9.20;99.90;;;;;;7606599;19;20652;-76
2023/03/25 01:44:07;;;;;;;8.52;1.52;;;9.10;99.90;;;;;;7584424;19;20025;-77
2023/03/25 01:46:48;;;;;;;3.97;1.40;;;9.10;99.90;;;;;;7596888;19;20025;-76
2023/03/25 01:49:25;;;;;;;4.72;1.42;;;9.10;99.90;;;;;;7605138;19;20374;-75
2023/03/25 01:52:07;;;;;;;6.25;2.10;;;9.10;99.90;;;;;;7598001;19;20014;-76
2023/03/25 01:54:40;;;;;;;4.20;1.33;;;9.10;99.90;;;;;;7587811;19;20018;-76
2023/03/25 01:57:17;;;;;;;4.82;1.23;;;9.30;99.90;;;;;;7594225;19;20186;-76
2023/03/25 01:59:52;;;;;;;2.13;0.90;;;9.20;99.90;;;;;;7601523;19;20011;-75
2023/03/25 02:02:33;;;;;;;5.90;1.15;;;9.20;99.90;;;;;;7604698;19;20022;-76
2023/03/25 02:05:11;;;;;;;2.58;1.05;;;9.30;99.90;;;;;;7601229;19;20033;-76
2023/03/25 02:07:46;;;;;;;4.25;1.20;;;9.40;99.90;;;;;;7590818;19;21028;-75
2023/03/25 02:10:20;;;;;;;5.88;1.40;;;9.40;99.90;;;;;;7598160;19;20049;-76
2023/03/25 02:12:52;;;;;;;5.88;1.00;;;9.30;99.90;;;;;;7596631;19;20109;-76
2023/03/25 02:15:28;;;;;;;4.18;1.40;;;9.30;99.90;;;;;;7598379;19;20014;-75
2023/03/25 02:18:25;;;;;;;7.15;1.23;;;9.30;99.90;;;;;;7595761;19;20098;-75
2023/03/25 02:21:22;;;;;;;5.68;1.45;;;9.30;99.90;;;;;;7588040;19;20018;-77
2023/03/25 02:24:14;;;;;;;4.65;1.52;;;9.30;99.90;;;;;;7591136;19;20015;-77
2023/03/25 02:27:25;;;;;;;4.38;1.00;;;9.40;99.90;;;;;;7587873;19;20011;-76
2023/03/25 02:30:25;;;;;;;4.15;1.10;;;9.30;99.60;;;;;;7598774;19;20025;-76
2023/03/25 02:33:06;;;;;;;3.03;0.98;;;9.30;99.40;;;;;;7607476;19;20019;-75
2023/03/25 02:35:57;;;;;;;9.02;1.15;;;9.30;99.90;;;;;;7600776;19;20591;-76
2023/03/25 02:38:33;;;;;;;2.88;0.82;;;9.30;99.80;;;;;;7604455;19;20015;-76
2023/03/25 02:41:37;;;;;;;2.33;1.00;;;9.40;99.30;;;;;;7600989;19;20022;-76
2023/03/25 02:44:21;;;;;;;5.78;1.30;;;9.20;99.70;;;;;;7601231;19;20006;-76
2023/03/25 02:46:59;;;;;;;4.10;0.85;;;9.00;99.90;;;;;;7601549;19;20033;-77
2023/03/25 02:49:39;;;;;;;4.32;1.20;;;9.00;99.90;;;;;;7590753;19;20014;-77
2023/03/25 02:52:27;;;;;;;3.25;1.00;;;8.90;99.90;;;;;;7589905;19;20030;-77
2023/03/25 02:55:04;;;;;;;3.88;1.20;;;8.90;99.90;;;;;;7605650;19;20050;-77
2023/03/25 02:57:41;;;;;;;4.38;0.80;;;9.00;99.70;;;;;;7595954;19;20026;-77
2023/03/25 03:00:17;;;;;;;4.72;1.35;;;8.90;99.90;;;;;;7606996;19;20022;-76
2023/03/25 03:02:58;;;;;;;3.33;1.20;;;8.80;99.90;;;;;;7590430;19;20022;-76
2023/03/25 03:05:38;;;;;;;9.05;1.48;;;8.70;99.90;;;;;;7599971;19;20010;-77
2023/03/25 03:08:33;;;;;;;6.68;1.45;;;8.80;99.90;;;;;;7602531;19;20015;-77
2023/03/25 03:11:32;;;;;;;4.53;1.27;;;8.70;99.90;;;;;;7600566;19;20355;-76
2023/03/25 03:14:27;;;;;;;7.22;1.10;;;8.70;99.90;;;;;;7593998;19;20026;-77
2023/03/25 03:17:29;;;;;;;10.32;1.60;;;8.70;99.90;;;;;;7604308;19;20010;-75
2023/03/25 03:20:31;;;;;;;6.40;1.70;;;8.80;99.90;;;;;;7588130;19;20014;-77
2023/03/25 03:23:27;;;;;;;8.65;1.52;;;8.80;99.60;;;;;;7607953;19;20867;-77
2023/03/25 03:26:11;;;;;;;5.45;1.27;;;8.70;99.90;;;;;;7603805;19;20771;-76
2023/03/25 03:28:49;;;;;;;6.80;1.25;;;8.70;99.80;;;;;;7583953;19;20066;-77
2023/03/25 03:31:27;;;;;;;2.15;1.00;;;8.70;99.90;;;;;;7602574;19;20086;-76
2023/03/25 03:34:27;;;;;;;7.88;1.13;;;8.60;99.90;;;;;;7603421;19;20988;-77
2023/03/25 03:37:02;;;;;;;3.08;1.60;;;8.60;99.90;;;;;;7603255;19;20594;-77
2023/03/25 03:39:36;;;;;;;3.95;1.10;;;8.60;99.90;;;;;;7602210;19;20022;-76
2023/03/25 03:42:29;;;;;;;6.63;1.30;;;8.50;99.90;;;;;;7609481;19;20098;-77
2023/03/25 03:45:09;;;;;;;2.47;1.00;;;8.50;99.90;;;;;;7608995;19;20018;-77
2023/03/25 03:47:47;;;;;;;4.85;1.30;;;8.30;99.90;;;;;;7601987;19;20010;-77
2023/03/25 03:50:30;;;;;;;3.17;1.00;;;8.40;99.90;;;;;;7603420;19;20021;-76
2023/03/25 03:53:15;;;;;;;6.63;1.42;;;8.30;99.90;;;;;;7613847;19;20021;-77
2023/03/25 03:55:55;;;;;;;9.25;1.45;;;8.40;99.90;;;;;;7606697;19;20551;-76
2023/03/25 03:58:33;;;;;;;5.45;1.13;;;8.30;99.90;;;;;;7607298;19;20023;-76
2023/03/25 04:01:10;;;;;;;3.67;1.50;;;8.30;99.90;;;;;;7601584;19;20089;-76
2023/03/25 04:03:56;;;;;;;5.18;0.90;;;8.30;99.90;;;;;;7594595;19;20111;-77
2023/03/25 04:06:45;;;;;;;6.72;1.33;;;8.30;99.90;;;;;;7602113;19;20498;-76
2023/03/25 04:09:26;;;;;;;3.15;1.05;;;8.20;99.90;;;;;;7614720;19;20022;-77
2023/03/25 04:12:04;;;;;;;2.95;1.25;;;8.10;99.90;;;;;;7597688;19;20737;-76
2023/03/25 04:14:37;;;;;;;2.30;0.95;;;8.10;99.90;;;;;;7605562;19;20105;-76
2023/03/25 04:17:10;;;;;;;5.55;1.20;;;8.00;99.90;;;;;;7603271;19;20014;-76
2023/03/25 04:19:47;;;;;;;9.02;1.60;;;8.00;99.90;;;;;;7595755;19;20367;-77
2023/03/25 04:22:20;;;;;;;4.80;0.80;;;8.00;99.90;;;;;;7606874;19;20015;-76
2023/03/25 04:24:55;;;;;;;5.27;1.00;;;8.10;99.90;;;;;;7606638;19;20010;-76
2023/03/25 04:27:28;;;;;;;5.65;0.90;;;8.10;99.90;;;;;;7589499;19;20033;-76
2023/03/25 04:30:02;;;;;;;6.13;1.00;;;8.10;99.70;;;;;;7602138;19;20074;-77
2023/03/25 04:32:34;;;;;;;4.65;1.13;;;8.10;99.60;;;;;;7587057;19;20035;-76
2023/03/25 04:35:08;;;;;;;6.45;1.10;;;8.00;99.80;;;;;;7593356;19;20018;-76
2023/03/25 04:37:40;;;;;;;;;;;8.00;99.60;;;;;;7598524;19;20027;-77
2023/03/25 04:40:15;;;;;;;9.60;0.90;;;8.00;98.60;;;;;;7601512;19;20504;-75
2023/03/25 04:42:47;;;;;;;6.18;1.90;;;8.10;98.20;;;;;;7594238;19;20750;-75
2023/03/25 04:45:20;;;;;;;5.82;1.15;;;8.10;97.90;;;;;;7591385;19;20034;-76
2023/03/25 04:47:53;;;;;;;10.32;1.30;;;8.10;98.00;;;;;;7593308;19;20601;-76
2023/03/25 04:50:28;;;;;;;4.30;1.00;;;8.00;97.80;;;;;;7598010;19;20010;-77
2023/03/25 04:53:00;;;;;;;5.13;1.27;;;8.10;98.00;;;;;;7605104;19;20715;-77
2023/03/25 04:55:33;;;;;;;7.72;1.48;;;8.20;97.00;;;;;;7607033;19;20053;-76
2023/03/25 04:58:08;;;;;;;8.27;1.20;;;8.30;96.90;;;;;;7601176;19;20018;-77
2023/03/25 05:00:43;;;;;;;5.50;1.13;;;8.30;96.70;;;;;;7606088;19;20014;-76
2023/03/25 05:03:22;;;;;;;5.03;1.38;;;8.20;97.10;;;;;;7604451;19;20029;-77
2023/03/25 05:05:55;;;;;;;7.82;1.40;;;8.30;97.20;;;;;;7608878;19;21212;-75
2023/03/25 05:08:28;;;;;;;2.58;1.10;;;8.30;96.90;;;;;;7614112;19;20014;-76
2023/03/25 05:11:00;;;;;;;8.00;1.00;;;8.50;96.10;;;;;;7606481;19;20443;-75
2023/03/25 05:13:32;;;;;;;7.72;1.27;;;8.50;96.20;;;;;;7599500;19;20014;-76
2023/03/25 05:16:05;;;;;;;6.88;1.00;;;8.30;96.60;;;;;;7600749;19;20582;-74
2023/03/25 05:18:37;;;;;;;4.88;0.80;;;8.30;97.30;;;;;;7605159;19;20635;-76
2023/03/25 05:21:10;;;;;;;4.45;0.93;;;8.40;97.30;;;;;;7609041;19;20018;-77
2023/03/25 05:23:42;;;;;;;6.13;1.30;;;8.30;97.50;;;;;;7610627;19;20558;-77
2023/03/25 05:26:15;;;;;;;3.22;0.95;;;8.20;97.70;;;;;;7611038;19;20047;-76
2023/03/25 05:28:50;;;;;;;5.75;0.73;;;8.30;97.90;;;;;;7589400;19;20345;-77
2023/03/25 05:31:22;;;;;;;2.30;1.05;;;8.20;98.20;;;;;;7605055;19;21663;-76
2023/03/25 05:33:55;;;;;;;4.33;1.07;;;8.10;98.40;;;;;;7606486;19;20018;-76
2023/03/25 05:36:28;;;;;;;1.67;1.02;;;8.00;98.90;;;;;;7607269;19;20025;-75
2023/03/25 05:39:01;;;;;;;3.05;0.85;;;8.10;98.90;;;;;;7611418;19;20029;-76
2023/03/25 05:41:37;;;;;;;3.93;0.90;;;8.00;99.20;;;;;;7596069;19;20019;-76
2023/03/25 05:44:14;;;;;;;4.53;1.15;;;8.10;98.70;;;;;;7604896;19;20015;-77
2023/03/25 05:46:46;;;;;;;2.95;1.02;;;8.30;98.00;;;;;;7595228;19;20014;-76
2023/03/25 05:49:20;;;;;;;4.43;0.90;;;8.30;98.00;;;;;;7612155;19;20010;-76
2023/03/25 05:51:55;;;;;;;4.70;1.05;;;8.30;98.10;;;;;;7609280;19;20019;-76
2023/03/25 05:54:28;;;;;;;3.63;1.13;;;8.40;97.70;;;;;;7590832;19;20051;-76
2023/03/25 05:57:00;;;;;;;3.22;1.35;;;8.40;98.30;;;;;;7600111;19;20039;-77
2023/03/25 05:59:32;;;;;;;1.60;0.73;;;8.50;98.10;;;;;;7579936;19;20022;-76
2023/03/25 06:02:13;;;;;;;2.65;0.68;;;8.50;97.50;;;;;;7592731;19;20132;-77
2023/03/25 06:04:49;;;;;;;1.05;0.70;;;8.70;96.60;;;;;;7557535;19;20770;-76
2023/03/25 06:07:21;;;;;;;1.88;0.80;;;8.60;96.10;;;;;;7571892;19;20053;-76
2023/03/25 06:09:54;;;;;;;1.33;0.60;;;8.50;95.50;;;;;;7577267;19;20018;-78
2023/03/25 06:12:28;;;;;;;1.60;0.80;;;8.40;95.90;;;;;;7571420;19;20061;-77
2023/03/25 06:15:00;;;;;;;5.40;0.93;;;8.40;94.80;;;;;;7590332;19;21288;-77
2023/03/25 06:17:33;;;;;;;2.95;0.65;;;8.40;95.40;;;;;;7559166;19;20014;-77
2023/03/25 06:20:11;;;;;;;1.02;0.60;;;8.40;95.40;;;;;;7571872;19;20023;-76
2023/03/25 06:22:44;;;;;;;2.53;1.00;;;8.60;94.60;;;;;;7597004;19;20082;-78
2023/03/25 06:25:19;;;;;;;1.23;0.52;;;8.50;95.00;;;;;;7609245;19;21364;-77
2023/03/25 06:27:51;;;;;;;3.05;0.57;;;8.60;94.00;;;;;;7551479;19;20011;-76
2023/03/25 06:30:24;;;;;;;0.60;0.50;;;8.60;94.40;;;;;;7580848;19;20402;-77
2023/03/25 06:32:58;;;;;;;0.57;0.40;;;8.70;93.20;;;;;;7572270;19;20019;-76
2023/03/25 06:35:30;;;;;;;0.95;0.50;;;8.70;92.00;;;;;;7590951;19;20015;-77
2023/03/25 06:38:03;;;;;;;0.70;0.70;;;8.60;91.10;;;;;;7592961;19;20025;-77
2023/03/25 06:40:55;;;;;;;2.22;0.55;;;8.60;91.10;;;;;;7581052;19;20031;-77
2023/03/25 06:43:28;;;;;;;0.52;0.47;;;8.60;90.40;;;;;;7569096;19;20026;-76
2023/03/25 06:46:19;;;;;;;1.65;0.50;;;8.50;90.60;;;;;;7557240;19;20040;-77
2023/03/25 06:49:12;;;;;;;0.73;0.30;;;8.50;90.00;;;;;;7585113;19;22428;-76
2023/03/25 06:51:44;;;;;;;0.77;0.45;;;8.40;90.30;;;;;;7586204;19;20019;-78
2023/03/25 06:54:17;;;;;;;1.58;0.50;;;8.30;91.00;;;;;;7567305;19;20018;-77
2023/03/25 06:56:49;;;;;;;2.00;0.63;;;8.30;91.10;;;;;;7567366;19;20102;-75
2023/03/25 06:59:22;;;;;;;0.65;0.60;;;8.20;91.70;;;;;;7561961;19;20011;-76
2023/03/25 07:01:54;;;;;;;1.40;0.77;;;8.30;92.00;;;;;;7571105;19;20022;-77
2023/03/25 07:04:27;;;;;;;0.75;0.68;;;8.10;93.00;;;;;;7552590;19;20018;-76
2023/03/25 07:06:59;;;;;;;0.77;0.50;;;8.00;93.30;;;;;;7550972;19;21116;-76
2023/03/25 07:09:31;;;;;;;1.15;0.60;;;8.20;93.50;;;;;;7565780;19;20014;-76
2023/03/25 07:12:05;;;;;;;2.35;0.80;;;8.20;94.00;;;;;;7554619;19;20977;-78
2023/03/25 07:14:40;;;;;;;1.02;0.77;;;8.10;94.10;;;;;;7570724;19;20021;-76
2023/03/25 07:17:12;;;;;;;0.75;0.60;;;8.30;93.70;;;;;;7582962;19;20059;-76
2023/03/25 07:19:45;;;;;;;0.90;0.60;;;8.30;93.50;;;;;;7570537;19;20017;-77
2023/03/25 07:22:17;;;;;;;1.40;0.80;;;8.20;93.70;;;;;;7587900;19;20065;-74
2023/03/25 07:24:51;;;;;;;1.77;0.52;;;8.10;93.90;;;;;;7561442;19;20029;-76
2023/03/25 07:27:24;;;;;;;0.75;0.50;;;8.20;94.00;;;;;;7586810;19;20009;-79
2023/03/25 07:30:09;;;;;;;1.23;0.70;;;8.00;94.30;;;;;;7566738;19;20021;-77
2023/03/25 07:32:44;;;;;;;0.75;0.70;;;8.10;94.30;;;;;;7540497;19;20499;-76
2023/03/25 07:35:17;;;;;;;1.25;0.77;;;8.00;95.00;;;;;;7551285;19;20748;-76
2023/03/25 07:37:49;;;;;;;0.93;0.52;;;8.00;94.80;;;;;;7536413;19;20022;-77
2023/03/25 07:40:22;;;;;;;1.63;0.97;;;8.10;94.80;;;;;;7562937;19;20511;-76
2023/03/25 07:42:54;;;;;;;0.90;0.60;;;8.10;95.00;;;;;;7551460;19;21405;-76
2023/03/25 07:45:47;;;;;;;2.25;0.80;;;8.10;95.10;;;;;;7573983;19;20627;-77
2023/03/25 07:48:21;;;;;;;1.13;0.65;;;8.00;94.90;;;;;;7597057;19;20101;-76
2023/03/25 07:50:53;;;;;;;1.13;0.50;;;8.00;94.90;;;;;;7562785;19;20018;-76
2023/03/25 07:53:26;;;;;;;1.38;0.45;;;8.00;94.60;;;;;;7586855;19;20431;-77
2023/03/25 07:55:59;;;;;;;0.70;0.47;;;8.10;94.50;;;;;;7593272;19;20078;-76
2023/03/25 07:58:31;;;;;;;0.98;0.70;;;8.10;93.90;;;;;;7562553;19;20138;-76
2023/03/25 08:01:05;;;;;;;3.33;0.57;;;8.10;94.50;;;;;;7557978;19;20022;-76
2023/03/25 08:03:40;;;;;;;0.35;0.30;;;8.10;95.10;;;;;;7593369;19;20014;-77
2023/03/25 08:06:12;;;;;;;2.15;0.75;;;8.20;94.50;;;;;;7596653;19;20010;-76
2023/03/25 08:08:45;;;;;;;1.65;0.60;;;8.30;94.60;;;;;;7592860;19;20517;-76
2023/03/25 08:11:17;;;;;;;0.50;0.50;;;8.20;94.20;;;;;;7595001;19;20018;-75
2023/03/25 08:13:49;;;;;;;2.47;1.48;;;8.40;94.40;;;;;;7576032;19;20018;-76
2023/03/25 08:16:21;;;;;;;5.50;0.70;;;8.40;94.20;;;;;;7582653;19;20031;-76
2023/03/25 08:18:54;;;;;;;1.63;0.50;;;8.50;94.30;;;;;;7583671;19;20106;-76
2023/03/25 08:21:27;;;;;;;2.65;0.70;;;8.70;94.50;;;;;;7589839;19;20022;-75
2023/03/25 08:24:03;;;;;;;1.17;0.60;;;8.90;93.70;;;;;;7597393;19;20052;-77
2023/03/25 08:26:37;;;;;;;3.45;0.75;;;8.80;92.50;;;;;;7579914;19;20976;-76
2023/03/25 08:29:10;;;;;;;0.40;0.25;;;8.80;93.00;;;;;;7578602;19;20055;-77
2023/03/25 08:31:45;;;;;;;1.88;0.60;;;8.80;93.30;;;;;;7584406;19;20015;-77
2023/03/25 08:34:19;;;;;;;0.63;0.32;;;8.90;92.70;;;;;;7590699;19;20019;-77
2023/03/25 08:36:52;;;;;;;2.88;0.77;;;8.90;92.50;;;;;;7571587;19;20054;-76
2023/03/25 08:39:29;;;;;;;3.38;0.50;;;8.70;93.20;;;;;;7587172;19;20526;-77
2023/03/25 08:42:01;;;;;;;1.77;0.60;;;8.80;93.60;;;;;;7564568;19;20071;-77
2023/03/25 08:44:34;;;;;;;2.77;0.60;;;8.80;94.30;;;;;;7567270;19;20018;-76
2023/03/25 08:47:07;;;;;;;1.67;0.50;;;8.80;94.20;;;;;;7568342;19;20275;-76
2023/03/25 08:49:40;;;;;;;1.55;0.70;;;8.90;93.90;;;;;;7580965;19;21990;-76
2023/03/25 08:52:12;;;;;;;1.33;0.60;;;9.00;93.90;;;;;;7576368;19;20006;-76
2023/03/25 08:54:44;;;;;;;0.73;0.32;;;9.10;93.40;;;;;;7562519;19;20029;-76
2023/03/25 08:57:16;;;;;;;0.70;0.50;;;9.20;93.10;;;;;;7532481;19;20014;-77
2023/03/25 08:59:49;;;;;;;2.05;0.85;;;9.20;93.30;;;;;;7558778;19;20023;-76
2023/03/25 09:02:21;;;;;;;1.00;0.55;;;9.30;93.30;;;;;;7578086;19;20015;-76
2023/03/25 09:04:54;;;;;;;4.53;0.60;;;9.40;92.80;;;;;;7586084;19;20048;-75
2023/03/25 09:07:27;;;;;;;1.20;0.60;;;9.40;92.60;;;;;;7554191;19;20158;-75
2023/03/25 09:09:59;;;;;;;1.98;0.70;;;9.50;92.70;;;;;;7563047;19;20018;-76
2023/03/25 09:12:31;;;;;;;1.48;0.68;;;9.60;92.80;;;;;;7577235;19;20125;-77
2023/03/25 09:15:04;;;;;;;4.97;0.85;;;9.60;91.80;;;;;;7586708;19;20829;-77
2023/03/25 09:17:37;;;;;;;0.82;0.40;;;9.60;91.90;;;;;;7591801;19;20769;-76
2023/03/25 09:20:10;;;;;;;1.00;0.60;;;9.60;92.00;;;;;;7584350;19;20097;-77
2023/03/25 09:22:42;;;;;;;1.53;0.50;;;9.70;92.50;;;;;;7594382;19;20051;-76
2023/03/25 09:25:15;;;;;;;2.45;0.68;;;9.70;91.60;;;;;;7581943;19;20015;-76
2023/03/25 09:27:47;;;;;;;1.58;0.70;;;9.80;90.90;;;;;;7560106;19;20039;-75
2023/03/25 09:30:20;;;;;;;0.98;0.50;;;9.90;91.00;;;;;;7569577;19;20909;-76
2023/03/25 09:32:52;;;;;;;2.75;0.70;;;9.70;91.10;;;;;;7567445;19;20799;-77
2023/03/25 09:35:25;;;;;;;4.53;1.08;;;9.80;90.40;;;;;;7592240;19;20026;-76
2023/03/25 09:37:57;;;;;;;2.35;0.55;;;9.80;89.80;;;;;;7569978;19;20526;-76
2023/03/25 09:40:30;;;;;;;3.23;1.10;;;9.80;90.00;;;;;;7524004;19;20022;-76
2023/03/25 09:43:28;;;;;;;1.95;0.75;;;9.90;90.70;;;;;;7577005;19;21135;-75
2023/03/25 09:46:00;;;;;;;1.60;0.43;;;10.20;88.10;;;;;;7551585;19;20025;-76
2023/03/25 09:48:42;;;;;;;2.53;0.77;;;10.40;89.00;;;;;;7588014;19;20041;-76
2023/03/25 09:51:14;;;;;;;3.05;0.77;;;10.40;86.40;;;;;;7583391;19;20010;-76
2023/03/25 09:54:27;;;;;;;4.88;0.80;;;10.40;86.60;;;;;;7576434;19;20010;-75
2023/03/25 09:57:06;;;;;;;2.65;0.80;;;10.60;84.90;;;;;;7586863;19;20015;-75
2023/03/25 09:59:47;;;;;;;2.50;0.68;;;10.80;83.90;;;;;;7598855;19;20515;-77
2023/03/25 10:02:37;;;;;;;4.38;0.85;;;11.00;84.90;;;;;;7557845;19;20074;-75
2023/03/25 10:05:19;;;;;;;3.20;0.63;;;11.00;82.30;;;;;;7577407;19;20018;-75
2023/03/25 10:08:16;;;;;;;1.00;0.77;;;11.00;81.00;;;;;;7528626;19;20097;-72
2023/03/25 10:10:58;;;;;;;1.30;0.40;;;11.00;80.00;;;;;;7579938;19;20436;-73
2023/03/25 10:13:36;;;;;;;2.42;0.93;;;11.00;78.70;;;;;;7584434;19;20019;-73
2023/03/25 10:16:32;;;;;;;2.40;0.90;;;10.80;78.30;;;;;;7534092;19;20449;-73
2023/03/25 10:19:08;;;;;;;2.40;0.75;;;10.80;79.30;;;;;;7560230;19;20090;-73
2023/03/25 10:21:55;;;;;;;1.17;0.60;;;10.90;79.00;;;;;;7563927;19;20007;-73
2023/03/25 10:25:05;;;;;;;2.97;1.48;;;11.00;79.40;;;;;;7572403;19;20102;-73
2023/03/25 10:27:48;;;;;;;5.93;0.95;;;11.10;77.90;;;;;;7563662;19;20011;-73
2023/03/25 10:30:22;;;;;;;4.78;0.88;;;11.20;76.30;;;;;;7561528;19;20011;-72
2023/03/25 10:32:57;;;;;;;4.10;1.15;;;11.10;75.70;;;;;;7577604;19;20014;-74
2023/03/25 10:35:36;;;;;;;3.42;0.70;;;11.10;75.20;;;;;;7549791;19;20057;-74
2023/03/25 10:38:17;;;;;;;2.60;0.90;;;11.30;76.10;;;;;;7529301;19;20106;-76
2023/03/25 10:41:00;;;;;;;1.83;1.00;;;11.00;76.20;;;;;;7582012;19;20031;-73
2023/03/25 10:43:39;;;;;;;4.45;0.80;;;11.00;75.90;;;;;;7590932;19;20057;-74
2023/03/25 10:46:37;;;;;;;2.92;0.82;;;11.10;75.90;;;;;;7595575;19;20026;-73
2023/03/25 10:49:12;;;;;;;2.15;0.82;;;10.90;80.20;;;;;;7580068;19;20018;-74
2023/03/25 10:51:46;;;;;;;4.55;0.80;;;10.50;88.20;;;;;;7578392;19;20018;-74
2023/03/25 10:54:22;;;;;;;1.17;0.60;;;10.30;88.90;;;;;;7600490;19;20395;-74
2023/03/25 10:57:05;;;;;;;3.13;0.70;;;10.40;89.10;;;;;;7588418;19;20041;-74
2023/03/25 10:59:44;;;;;;;2.07;0.67;;;10.40;86.30;;;;;;7599422;19;20148;-74
2023/03/25 11:02:24;;;;;;;4.55;0.57;;;10.40;87.70;;;;;;7584383;19;20014;-75
2023/03/25 11:05:00;;;;;;;2.45;0.70;;;10.40;85.70;;;;;;7594126;19;20022;-75
2023/03/25 11:07:36;;;;;;;0.75;0.50;;;10.60;86.70;;;;;;7594413;19;20672;-75
2023/03/25 11:10:19;;;;;;;1.55;0.80;;;10.70;87.10;;;;;;7558965;19;20014;-75
2023/03/25 11:12:53;;;;;;;4.07;0.80;;;10.90;86.70;;;;;;7555932;19;20018;-75
2023/03/25 11:15:37;;;;;;;0.63;0.50;;;11.20;85.70;;;;;;7561248;19;20031;-75
2023/03/25 11:18:32;;;;;;;0.70;0.55;;;11.30;82.20;;;;;;7584154;19;20401;-76
2023/03/25 11:21:10;;;;;;;1.27;0.63;;;11.40;81.90;;;;;;7577374;19;20014;-75
2023/03/25 11:23:50;;;;;;;1.13;0.50;;;11.70;79.00;;;;;;7584898;19;20082;-75
2023/03/25 11:26:25;;;;;;;0.95;0.63;;;11.70;79.10;;;;;;7588991;19;23328;-75
2023/03/25 11:29:06;;;;;;;0.68;0.40;;;11.80;78.40;;;;;;7601702;19;20054;-74
2023/03/25 11:31:41;;;;;;;1.05;0.50;;;11.80;76.30;;;;;;7586140;19;20056;-75
2023/03/25 11:34:19;;;;;;;0.50;0.40;;;11.50;77.20;;;;;;7594649;19;20015;-75
2023/03/25 11:37:00;;;;;;;1.08;0.50;;;11.30;78.30;;;;;;7581638;19;20011;-74
2023/03/25 11:39:36;;;;;;;1.48;0.82;;;11.40;78.50;;;;;;7587361;19;20057;-76
2023/03/25 11:42:36;;;;;;;3.20;0.60;;;11.50;79.00;;;;;;7558476;19;20023;-76
2023/03/25 11:45:22;;;;;;;5.63;0.60;;;11.60;76.00;;;;;;7574702;19;20099;-75
2023/03/25 11:48:00;;;;;;;1.40;0.30;;;12.00;75.50;;;;;;7566681;19;20139;-74
2023/03/25 11:50:34;;;;;;;0.52;0.30;;;12.00;73.60;;;;;;7530585;19;20015;-74
2023/03/25 11:53:06;;;;;;;1.17;0.25;;;11.90;74.10;;;;;;7598826;19;20061;-74
2023/03/25 11:55:48;;;;;;;0.73;0.50;;;12.00;74.30;;;;;;7592023;19;24606;-73
2023/03/25 11:58:27;;;;;;;0.70;0.50;;;11.80;74.10;;;;;;7567894;19;20010;-73
2023/03/25 12:01:19;;;;;;;0.55;0.40;;;11.80;74.40;;;;;;7590439;19;20828;-74
2023/03/25 12:04:04;;;;;;;1.48;0.47;;;11.90;75.00;;;;;;7577282;19;20018;-73
2023/03/25 12:06:36;;;;;;;2.15;0.40;;;11.80;73.10;;;;;;7573195;19;20889;-74
2023/03/25 12:09:10;;;;;;;1.08;0.50;;;11.60;74.60;;;;;;7560224;19;20599;-74
2023/03/25 12:12:02;;;;;;;1.00;0.50;;;11.70;75.90;;;;;;7549390;19;20068;-75
2023/03/25 12:15:03;;;;;;;1.40;0.40;;;12.10;74.00;;;;;;7529752;19;20018;-73
2023/03/25 12:17:54;;;;;;;0.60;0.40;;;12.50;72.30;;;;;;7566225;19;20019;-74
2023/03/25 12:20:45;;;;;;;0.93;0.40;;;12.90;70.80;;;;;;7555757;19;20021;-75
2023/03/25 12:23:35;;;;;;;0.65;0.30;;;13.00;70.70;;;;;;7560301;19;20121;-74
2023/03/25 12:26:16;;;;;;;0.52;0.52;;;13.00;70.30;;;;;;7568266;19;20384;-74
2023/03/25 12:29:23;;;;;;;2.08;0.38;;;13.30;69.30;;;;;;7573063;19;20651;-74
2023/03/25 12:32:34;;;;;;;4.43;0.63;;;13.30;68.80;;;;;;7555714;19;20017;-74
2023/03/25 12:35:25;;;;;;;1.83;0.65;;;12.80;70.60;;;;;;7581162;19;20010;-74
2023/03/25 12:38:25;;;;;;;0.50;0.40;;;12.60;69.70;;;;;;7577210;19;20124;-74
2023/03/25 12:41:06;;;;;;;1.30;0.55;;;12.40;70.70;;;;;;7575715;19;20010;-73
2023/03/25 12:43:57;;;;;;;0.80;0.50;;;12.30;70.60;;;;;;7582972;19;20025;-73
2023/03/25 12:47:03;;;;;;;1.17;0.30;;;12.20;72.30;;;;;;7578707;19;20550;-73
2023/03/25 12:49:41;;;;;;;0.98;0.50;;;12.10;71.50;;;;;;7563592;19;20721;-73
2023/03/25 12:52:17;;;;;;;0.45;0.30;;;12.20;72.20;;;;;;7593307;19;20973;-75
2023/03/25 12:55:16;;;;;;;0.40;0.30;;;12.20;72.10;;;;;;7572827;19;20019;-72
2023/03/25 12:58:21;;;;;;;2.17;0.70;;;12.10;71.90;;;;;;7577911;19;20029;-74
2023/03/25 13:01:00;;;;;;;4.05;0.40;;;11.90;72.00;;;;;;7565967;19;20014;-74
2023/03/25 13:03:38;;;;;;;1.00;0.47;;;11.70;74.20;;;;;;7584718;19;20029;-74
2023/03/25 13:06:35;;;;;;;1.50;0.85;;;11.80;73.30;;;;;;7564213;19;20014;-73
2023/03/25 13:09:16;;;;;;;4.07;3.53;;;11.70;73.30;;;;;;7573199;19;21849;-75
2023/03/25 13:12:00;;;;;;;14.05;8.10;;;11.50;74.20;;;;;;7579766;19;20045;-73
2023/03/25 13:14:38;;;;;;;0.47;0.47;;;11.40;72.80;;;;;;7579344;19;20010;-74
2023/03/25 13:17:33;;;;;;;1.85;1.25;;;11.40;73.80;;;;;;7575426;19;20589;-73
2023/03/25 13:20:09;;;;;;;2.05;0.40;;;11.50;74.00;;;;;;7562453;19;21289;-74
2023/03/25 13:22:50;;;;;;;16.33;10.45;;;11.70;74.10;;;;;;7576047;19;20014;-74
2023/03/25 13:25:37;;;;;;;2.10;1.30;;;11.50;74.60;;;;;;7547970;19;20018;-74
2023/03/25 13:28:15;;;;;;;3.05;2.75;;;12.00;74.40;;;;;;7557085;19;20029;-74
2023/03/25 13:30:49;;;;;;;3.10;2.80;;;12.40;72.70;;;;;;7577167;19;20014;-74
2023/03/25 13:33:31;;;;;;;28.45;18.80;;;12.50;71.70;;;;;;7563961;19;20018;-73
2023/03/25 13:36:13;;;;;;;754.95;399.13;;;13.00;70.00;;;;;;7581852;19;20018;-73
2023/03/25 13:38:50;;;;;;;14.50;8.02;;;13.00;69.70;;;;;;7557004;19;20017;-74
2023/03/25 13:41:30;;;;;;;91.97;48.15;;;13.10;70.30;;;;;;7561180;19;20079;-73
2023/03/25 13:44:15;;;;;;;6.47;3.58;;;12.80;70.80;;;;;;7551017;19;20011;-73
2023/03/25 13:47:17;;;;;;;1.17;0.60;;;12.50;73.20;;;;;;7576467;19;20018;-74
2023/03/25 13:50:01;;;;;;;1.70;0.30;;;12.90;72.20;;;;;;7576218;19;20022;-73
2023/03/25 13:52:38;;;;;;;5.45;0.40;;;13.00;70.70;;;;;;7570751;19;20017;-73